Time;durP1;ratioP1;P1;durP2;ratioP2;P2;SDS_P1;SDS_P2;PMS_P1;PMS_P2;Temp;Humidity;BMP_temperature;BMP_pressure;BME280_temperature;BME280_humidity;BME280_pressure;Samples;Min_cycle;Max_cycle;Signal;HPM_P1;HPM_P2
2024/03/18 08:24:56;;;;;;;6.17;2.00;;;14.10;99.90;;;;;;2602746;23;20528;-72
2024/03/18 08:27:25;;;;;;;5.20;2.10;;;13.90;99.90;;;;;;4917569;29;20297;-72
2024/03/18 08:29:53;;;;;;;7.50;2.40;;;13.70;99.90;;;;;;4918409;29;20225;-72
2024/03/18 08:32:20;;;;;;;7.37;2.30;;;13.60;99.90;;;;;;4918080;29;20237;-72
2024/03/18 08:34:47;;;;;;;8.03;2.67;;;13.70;99.90;;;;;;4918106;29;20213;-73
2024/03/18 08:37:14;;;;;;;6.50;2.13;;;13.40;99.90;;;;;;4917833;29;20245;-72
2024/03/18 08:39:40;;;;;;;6.87;2.23;;;13.20;99.90;;;;;;4917682;29;20217;-72
2024/03/18 08:42:09;;;;;;;9.70;2.50;;;13.20;99.90;;;;;;4917671;29;20268;-76
2024/03/18 08:44:36;;;;;;;9.37;2.63;;;13.40;99.90;;;;;;4917988;29;20269;-73
2024/03/18 08:47:04;;;;;;;6.07;2.43;;;13.40;99.90;;;;;;4918103;29;20241;-71
2024/03/18 08:49:31;;;;;;;10.63;2.83;;;13.40;99.90;;;;;;4917912;29;20677;-72
2024/03/18 08:51:58;;;;;;;7.57;2.90;;;13.50;99.90;;;;;;4917549;29;20261;-72
2024/03/18 08:54:25;;;;;;;8.23;3.20;;;13.70;99.90;;;;;;4917856;29;20292;-71
2024/03/18 08:56:52;;;;;;;8.50;3.50;;;13.80;99.90;;;;;;4917552;29;20209;-71
2024/03/18 08:59:20;;;;;;;10.97;2.73;;;14.10;99.90;;;;;;4917871;29;20642;-72
2024/03/18 09:01:48;;;;;;;5.27;2.70;;;14.20;99.90;;;;;;4917502;29;20209;-72
2024/03/18 09:04:15;;;;;;;6.53;2.73;;;14.30;99.90;;;;;;4917607;29;20206;-72
2024/03/18 09:06:43;;;;;;;5.40;3.00;;;14.30;99.90;;;;;;4917319;29;20247;-72
2024/03/18 09:09:11;;;;;;;8.00;2.80;;;14.40;99.90;;;;;;4917397;29;20210;-71
2024/03/18 09:11:38;;;;;;;7.53;2.90;;;14.50;99.90;;;;;;4917173;29;20281;-71
2024/03/18 09:14:05;;;;;;;9.80;3.03;;;14.60;99.90;;;;;;4917233;29;20248;-73
2024/03/18 09:16:34;;;;;;;7.73;3.30;;;14.50;99.90;;;;;;4917271;29;20308;-72
2024/03/18 09:19:01;;;;;;;18.83;3.63;;;14.60;99.90;;;;;;4917229;29;20213;-73
2024/03/18 09:21:28;;;;;;;7.03;3.40;;;14.60;99.90;;;;;;4917515;29;20682;-72
2024/03/18 09:23:55;;;;;;;12.50;3.93;;;14.60;99.90;;;;;;4917207;29;20253;-72
2024/03/18 09:26:22;;;;;;;7.63;3.40;;;14.60;99.90;;;;;;4916993;29;20302;-73
2024/03/18 09:28:49;;;;;;;8.50;3.30;;;14.50;99.90;;;;;;4919582;29;20566;-71
2024/03/18 09:31:16;;;;;;;12.37;3.57;;;14.50;99.90;;;;;;4934639;29;20264;-73
2024/03/18 09:33:44;;;;;;;8.50;3.20;;;14.70;99.90;;;;;;4934710;29;20339;-72
2024/03/18 09:36:11;;;;;;;7.93;3.40;;;15.10;99.90;;;;;;4934614;29;20295;-71
2024/03/18 09:38:38;;;;;;;4.50;3.00;;;15.20;99.90;;;;;;4917393;29;20240;-71
2024/03/18 09:41:06;;;;;;;6.90;3.47;;;15.20;99.90;;;;;;4915447;29;20260;-71
2024/03/18 09:43:34;;;;;;;8.13;3.20;;;15.10;99.90;;;;;;4915276;29;20277;-69
2024/03/18 09:46:03;;;;;;;8.60;2.90;;;14.90;99.90;;;;;;4915650;29;20241;-74
2024/03/18 09:48:32;;;;;;;8.20;3.27;;;14.90;99.90;;;;;;4915484;29;20213;-72
2024/03/18 09:51:03;;;;;;;6.47;3.27;;;15.10;99.90;;;;;;4915252;29;20241;-69
2024/03/18 09:53:30;;;;;;;12.10;3.63;;;15.10;99.90;;;;;;4915127;29;20548;-69
2024/03/18 09:55:57;;;;;;;7.20;3.53;;;15.10;99.90;;;;;;4915836;29;20210;-70
2024/03/18 09:58:24;;;;;;;9.23;3.67;;;15.00;99.90;;;;;;4914549;29;20566;-72
2024/03/18 10:00:51;;;;;;;7.73;3.13;;;14.90;99.90;;;;;;4915385;29;20252;-72
2024/03/18 10:03:19;;;;;;;8.23;2.83;;;15.10;99.90;;;;;;4915409;29;20631;-71
2024/03/18 10:05:48;;;;;;;7.33;3.30;;;15.20;99.90;;;;;;4914812;29;20269;-70
2024/03/18 10:08:19;;;;;;;8.90;3.43;;;15.30;99.90;;;;;;4914867;29;20209;-70
2024/03/18 10:10:50;;;;;;;11.67;3.33;;;15.40;99.90;;;;;;4915348;29;20221;-72
2024/03/18 10:13:18;;;;;;;10.90;3.33;;;15.50;99.90;;;;;;4914549;29;20650;-71
2024/03/18 10:15:45;;;;;;;6.37;3.07;;;15.30;99.90;;;;;;4915673;29;20292;-70
2024/03/18 10:18:13;;;;;;;7.60;3.03;;;15.20;99.90;;;;;;4915312;29;20240;-69
2024/03/18 10:20:40;;;;;;;7.23;3.27;;;15.10;99.90;;;;;;4915077;29;20241;-68
2024/03/18 10:23:13;;;;;;;8.80;3.60;;;15.30;99.90;;;;;;4914887;29;20264;-70
2024/03/18 10:25:42;;;;;;;7.00;3.10;;;15.80;99.90;;;;;;4914617;29;20331;-71
2024/03/18 10:28:12;;;;;;;8.90;3.30;;;15.80;99.90;;;;;;4914817;29;20245;-71
2024/03/18 10:30:40;;;;;;;10.07;3.20;;;15.70;99.90;;;;;;4915316;29;20293;-70
2024/03/18 10:33:08;;;;;;;8.37;3.00;;;15.90;99.90;;;;;;4915675;29;20229;-69
2024/03/18 10:35:36;;;;;;;8.77;3.37;;;16.10;99.90;;;;;;4914790;29;20220;-73
2024/03/18 10:38:05;;;;;;;6.18;2.55;;;16.20;99.90;;;;;;4914973;29;20241;-71
2024/03/18 10:40:37;;;;;;;5.60;2.70;;;16.20;99.90;;;;;;4914949;29;20249;-70
2024/03/18 10:43:07;;;;;;;7.03;3.00;;;16.20;99.90;;;;;;4914887;29;20312;-70
2024/03/18 10:45:36;;;;;;;7.33;2.80;;;16.20;99.90;;;;;;4915413;29;20801;-80
2024/03/18 10:48:05;;;;;;;4.70;2.30;;;16.10;99.90;;;;;;4918128;29;20245;-71
2024/03/18 10:50:33;;;;;;;5.57;2.37;;;16.20;99.90;;;;;;4934041;29;20674;-72
2024/03/18 10:53:01;;;;;;;4.87;2.33;;;16.20;99.90;;;;;;4919982;29;20329;-71
2024/03/18 10:55:30;;;;;;;5.73;2.50;;;15.80;99.90;;;;;;4914486;29;20277;-71
2024/03/18 10:57:59;;;;;;;6.63;2.67;;;15.80;99.90;;;;;;4915179;29;20210;-72
2024/03/18 11:00:28;;;;;;;5.17;2.43;;;15.80;99.90;;;;;;4915134;29;20213;-70
2024/03/18 11:02:58;;;;;;;3.83;2.30;;;15.90;99.90;;;;;;4914949;29;20662;-72
2024/03/18 11:05:26;;;;;;;3.20;1.90;;;16.10;99.90;;;;;;4914558;29;20241;-71
2024/03/18 11:07:55;;;;;;;6.77;2.20;;;16.20;99.90;;;;;;4914576;29;20267;-72
2024/03/18 11:10:23;;;;;;;6.87;2.50;;;16.00;99.90;;;;;;4914626;29;20252;-70
2024/03/18 11:12:51;;;;;;;8.03;2.47;;;16.30;99.90;;;;;;4915095;29;20280;-70
2024/03/18 11:15:19;;;;;;;6.80;2.17;;;16.40;99.90;;;;;;4915421;29;20297;-75
2024/03/18 11:17:49;;;;;;;6.37;2.03;;;16.40;99.90;;;;;;4916058;29;20210;-72
2024/03/18 11:20:18;;;;;;;7.13;2.30;;;16.50;99.90;;;;;;4918346;29;20210;-71
2024/03/18 11:22:49;;;;;;;4.13;2.10;;;16.80;99.90;;;;;;4919613;29;20602;-72
2024/03/18 11:25:17;;;;;;;6.32;1.80;;;17.00;99.90;;;;;;4919298;29;20252;-72
2024/03/18 11:27:52;;;;;;;6.20;1.98;;;17.00;99.90;;;;;;4919406;29;20236;-77
2024/03/18 11:30:27;;;;;;;8.77;2.08;;;16.60;99.90;;;;;;4919302;29;20205;-72
2024/03/18 11:32:56;;;;;;;7.00;1.97;;;16.60;99.90;;;;;;4919283;29;20288;-72
2024/03/18 11:35:24;;;;;;;6.43;1.90;;;16.60;99.90;;;;;;4935533;29;20272;-78
2024/03/18 11:37:51;;;;;;;4.63;1.98;;;16.60;99.90;;;;;;4938353;29;20247;-73
2024/03/18 11:40:21;;;;;;;8.75;2.00;;;16.50;99.90;;;;;;4938176;29;20208;-72
2024/03/18 11:42:48;;;;;;;4.90;1.80;;;16.40;99.90;;;;;;4937736;29;20239;-72
2024/03/18 11:45:20;;;;;;;7.72;1.48;;;16.40;99.90;;;;;;4938064;29;20209;-73
2024/03/18 11:47:48;;;;;;;4.45;1.67;;;16.40;99.90;;;;;;4938135;29;20247;-72
2024/03/18 11:50:16;;;;;;;3.13;1.58;;;16.30;99.90;;;;;;4937853;29;20212;-78
2024/03/18 11:52:44;;;;;;;5.03;1.73;;;16.60;99.90;;;;;;4937580;29;20236;-73
2024/03/18 11:55:15;;;;;;;3.20;1.67;;;16.40;99.90;;;;;;4937815;29;20236;-72
2024/03/18 11:57:44;;;;;;;2.33;1.77;;;16.30;99.90;;;;;;4920811;29;20244;-75
2024/03/18 12:00:12;;;;;;;3.27;1.30;;;16.20;99.90;;;;;;4917427;29;20301;-73
2024/03/18 12:02:41;;;;;;;4.53;1.50;;;16.20;99.90;;;;;;4917023;29;20230;-73
2024/03/18 12:05:09;;;;;;;3.60;1.35;;;16.30;99.90;;;;;;4918553;29;20219;-72
2024/03/18 12:07:39;;;;;;;3.13;1.30;;;16.20;99.90;;;;;;4918189;29;20233;-72
2024/03/18 12:10:08;;;;;;;5.83;1.43;;;16.00;99.90;;;;;;4918246;29;20237;-72
2024/03/18 12:12:36;;;;;;;5.73;1.67;;;15.70;99.90;;;;;;4918709;29;20259;-72
2024/03/18 12:15:04;;;;;;;2.63;1.80;;;15.70;99.90;;;;;;4918643;29;20649;-72
2024/03/18 12:17:32;;;;;;;3.90;1.30;;;15.60;99.90;;;;;;4918478;29;20634;-72
2024/03/18 12:20:03;;;;;;;6.93;1.20;;;15.40;99.90;;;;;;4918474;29;20267;-71
2024/03/18 12:22:30;;;;;;;8.00;1.70;;;15.50;99.90;;;;;;4918350;29;20229;-72
2024/03/18 12:30:30;;;;;;;2.70;1.30;;;15.90;99.90;;;;;;4917814;29;20221;-72
2024/03/18 12:32:57;;;;;;;3.08;1.38;;;16.10;99.90;;;;;;4918028;29;20233;-72
2024/03/18 12:35:24;;;;;;;2.80;1.23;;;16.50;99.90;;;;;;4918298;29;20209;-76
2024/03/18 12:37:53;;;;;;;3.72;1.10;;;16.60;99.90;;;;;;4918626;29;20265;-71
2024/03/18 12:40:23;;;;;;;5.35;1.20;;;16.80;99.90;;;;;;4918132;29;20213;-72
2024/03/18 12:42:51;;;;;;;4.28;1.20;;;17.00;99.90;;;;;;4917605;29;20276;-79
2024/03/18 12:45:17;;;;;;;6.47;1.30;;;17.00;99.90;;;;;;4917747;29;20236;-78
2024/03/18 12:47:46;;;;;;;3.13;1.13;;;17.10;99.90;;;;;;4917933;29;20268;-72
2024/03/18 12:50:18;;;;;;;2.88;1.10;;;17.40;99.90;;;;;;4917872;29;20205;-75
2024/03/18 12:52:46;;;;;;;3.42;1.15;;;17.60;99.90;;;;;;4917647;29;20742;-72
2024/03/18 12:55:13;;;;;;;4.05;0.95;;;17.50;99.90;;;;;;4918077;29;20582;-72
2024/03/18 12:57:43;;;;;;;2.75;0.90;;;17.60;99.90;;;;;;4917737;29;20635;-72
2024/03/18 13:00:11;;;;;;;4.78;0.90;;;17.60;99.90;;;;;;4918013;29;20217;-71
2024/03/18 13:02:39;;;;;;;1.83;0.82;;;17.40;99.90;;;;;;4917742;29;20230;-72
2024/03/18 13:05:08;;;;;;;5.82;0.90;;;17.50;99.90;;;;;;4917563;29;20220;-72
2024/03/18 13:07:37;;;;;;;3.05;1.00;;;17.40;99.90;;;;;;4917461;29;20247;-72
2024/03/18 13:10:06;;;;;;;3.38;0.73;;;17.30;99.90;;;;;;4917721;29;20209;-72
2024/03/18 13:12:34;;;;;;;3.95;1.38;;;17.40;99.90;;;;;;4917229;29;20730;-79
2024/03/18 13:15:05;;;;;;;3.85;0.90;;;17.50;99.90;;;;;;4917733;29;20213;-72
2024/03/18 13:17:32;;;;;;;4.97;1.05;;;17.50;99.90;;;;;;4917310;29;20216;-78
2024/03/18 13:20:00;;;;;;;5.55;0.80;;;17.50;99.90;;;;;;4917349;29;20619;-72
2024/03/18 13:22:27;;;;;;;3.00;0.90;;;17.50;99.90;;;;;;4917368;29;20225;-75
2024/03/18 13:24:54;;;;;;;2.15;0.80;;;17.30;99.90;;;;;;4917242;29;20213;-72
2024/03/18 13:27:21;;;;;;;4.47;0.85;;;17.40;99.90;;;;;;4917280;29;20280;-72
2024/03/18 13:29:49;;;;;;;2.40;0.70;;;17.60;99.90;;;;;;4911895;29;20265;-73
2024/03/18 13:32:19;;;;;;;1.83;0.60;;;17.50;99.90;;;;;;4917690;29;20264;-72
2024/03/18 13:34:46;;;;;;;1.58;0.80;;;17.50;99.90;;;;;;4921576;29;20201;-73
2024/03/18 13:37:13;;;;;;;3.55;0.85;;;17.50;99.90;;;;;;4935803;29;20217;-73
2024/03/18 13:39:40;;;;;;;2.35;1.00;;;17.40;99.90;;;;;;4922007;29;20245;-73
2024/03/18 13:42:15;;;;;;;0.85;0.60;;;17.50;99.90;;;;;;4916362;29;20265;-73
2024/03/18 13:44:43;;;;;;;2.53;0.77;;;17.40;99.90;;;;;;4916423;29;20205;-73
2024/03/18 13:47:12;;;;;;;3.67;0.70;;;17.40;99.90;;;;;;4923304;29;20271;-78
2024/03/18 13:49:41;;;;;;;2.38;0.75;;;17.40;99.90;;;;;;4922251;29;20213;-73
2024/03/18 13:52:13;;;;;;;1.83;0.50;;;17.30;99.90;;;;;;4916340;29;20311;-72
2024/03/18 13:54:40;;;;;;;2.65;0.73;;;17.20;99.90;;;;;;4916651;29;20293;-72
2024/03/18 13:57:08;;;;;;;2.05;0.80;;;17.20;99.90;;;;;;4916286;29;20683;-72
2024/03/18 13:59:36;;;;;;;1.48;0.50;;;17.30;99.90;;;;;;4916228;29;20533;-72
2024/03/18 14:02:04;;;;;;;1.48;0.60;;;17.00;99.90;;;;;;4916330;29;20264;-72
2024/03/18 14:04:33;;;;;;;2.10;0.80;;;17.00;99.90;;;;;;4916198;29;20634;-72
2024/03/18 14:07:05;;;;;;;3.67;1.00;;;17.00;99.90;;;;;;4916312;29;20332;-71
2024/03/18 14:09:32;;;;;;;3.47;0.82;;;17.00;99.90;;;;;;4916167;29;20253;-73
2024/03/18 14:12:00;;;;;;;2.90;1.10;;;17.00;99.90;;;;;;4916275;29;20226;-71
2024/03/18 14:14:32;;;;;;;1.30;0.65;;;17.00;99.90;;;;;;4916273;29;20317;-71
2024/03/18 14:16:59;;;;;;;2.17;0.93;;;16.90;99.90;;;;;;4916109;29;20257;-71
2024/03/18 14:19:26;;;;;;;2.45;0.80;;;16.90;99.90;;;;;;4916214;29;20269;-72
2024/03/18 14:21:53;;;;;;;1.73;0.90;;;16.90;99.90;;;;;;4917263;29;20607;-72
2024/03/18 14:24:21;;;;;;;1.23;0.80;;;16.90;99.90;;;;;;4919406;29;20260;-72
2024/03/18 14:26:48;;;;;;;3.72;1.50;;;17.00;99.90;;;;;;4915854;29;20243;-72
2024/03/18 14:29:15;;;;;;;3.80;0.90;;;16.90;99.90;;;;;;4915743;29;20244;-70
2024/03/18 14:31:42;;;;;;;1.23;0.85;;;16.70;99.90;;;;;;4915994;29;20654;-72
2024/03/18 14:34:10;;;;;;;2.28;1.17;;;16.80;99.90;;;;;;4916260;29;20237;-71
2024/03/18 14:36:37;;;;;;;1.83;1.13;;;16.90;99.90;;;;;;4916347;29;20213;-71
2024/03/18 14:39:05;;;;;;;2.40;1.15;;;16.90;99.90;;;;;;4915990;29;20587;-77
2024/03/18 14:41:34;;;;;;;2.83;1.10;;;16.90;99.90;;;;;;4916087;29;20256;-72
2024/03/18 14:44:03;;;;;;;2.53;1.40;;;17.20;99.90;;;;;;4915791;29;20236;-72
2024/03/18 14:46:30;;;;;;;3.53;1.25;;;17.40;99.90;;;;;;4916165;29;20218;-72
2024/03/18 14:48:57;;;;;;;2.72;1.20;;;17.50;99.90;;;;;;4916221;29;20248;-72
2024/03/18 14:51:24;;;;;;;3.97;1.55;;;17.50;99.90;;;;;;4916423;29;20256;-72
2024/03/18 14:53:51;;;;;;;2.17;1.10;;;17.50;99.90;;;;;;4916325;29;20261;-72
2024/03/18 14:56:18;;;;;;;1.38;0.95;;;17.30;99.90;;;;;;4919460;29;20253;-72
2024/03/18 14:58:46;;;;;;;1.67;1.30;;;17.20;99.90;;;;;;4919057;29;20237;-72
2024/03/18 15:01:16;;;;;;;2.33;1.48;;;17.10;99.90;;;;;;4919773;29;20241;-72
2024/03/18 15:03:44;;;;;;;1.67;0.95;;;17.20;99.90;;;;;;4919220;29;20675;-73
2024/03/18 15:06:11;;;;;;;2.03;1.15;;;17.10;99.90;;;;;;4919561;29;20665;-72
2024/03/18 15:08:38;;;;;;;1.67;0.95;;;17.20;99.90;;;;;;4919338;29;20305;-72
2024/03/18 15:11:05;;;;;;;2.30;1.00;;;17.30;99.90;;;;;;4919140;29;20252;-72
2024/03/18 15:13:44;;;;;;;1.98;0.88;;;17.40;99.90;;;;;;4920476;29;20718;-75
2024/03/18 15:16:13;;;;;;;1.30;0.82;;;17.60;99.90;;;;;;4899175;29;20655;-73
2024/03/18 15:18:40;;;;;;;3.28;1.35;;;17.40;99.90;;;;;;4903931;29;20210;-74
2024/03/18 15:21:08;;;;;;;1.38;0.77;;;17.40;99.90;;;;;;4919620;29;20244;-76
2024/03/18 15:24:01;;;;;;;4.18;1.00;;;17.20;99.90;;;;;;4927973;29;20227;-73
2024/03/18 15:29:15;;;;;;;2.42;1.00;;;16.70;99.90;;;;;;4915807;29;20594;-74
2024/03/18 15:31:43;;;;;;;2.97;0.93;;;16.70;99.90;;;;;;4917806;29;20279;-73
2024/03/18 15:34:11;;;;;;;3.03;1.13;;;16.70;99.90;;;;;;4916951;29;20593;-74
2024/03/18 15:36:38;;;;;;;2.17;0.90;;;16.60;99.90;;;;;;4918077;29;20213;-74
2024/03/18 15:39:08;;;;;;;0.97;0.80;;;16.50;99.90;;;;;;4917536;29;20237;-77
2024/03/18 15:41:35;;;;;;;1.52;0.95;;;16.50;99.90;;;;;;4916681;29;20611;-74
2024/03/18 15:44:02;;;;;;;1.15;0.70;;;16.50;99.90;;;;;;4916829;29;20225;-73
2024/03/18 15:46:29;;;;;;;1.98;0.90;;;16.40;99.90;;;;;;4916982;29;20213;-77
2024/03/18 15:48:57;;;;;;;1.73;0.90;;;16.40;99.90;;;;;;4916469;29;21368;-72
2024/03/18 15:51:24;;;;;;;3.23;0.93;;;16.40;99.90;;;;;;4917345;29;20244;-76
2024/03/18 15:53:51;;;;;;;2.20;1.00;;;16.30;99.90;;;;;;4916706;29;20248;-75
2024/03/18 15:56:18;;;;;;;1.87;0.80;;;16.10;99.90;;;;;;4916708;29;20308;-76
2024/03/18 15:58:46;;;;;;;3.53;1.00;;;15.90;99.90;;;;;;4916313;29;20217;-75
2024/03/18 16:01:16;;;;;;;7.55;0.75;;;16.00;99.90;;;;;;4916556;29;20261;-75
2024/03/18 16:03:44;;;;;;;2.27;0.87;;;16.00;99.90;;;;;;4916437;29;20264;-75
2024/03/18 16:06:17;;;;;;;1.10;0.70;;;16.00;99.90;;;;;;4915431;29;20631;-74
2024/03/18 16:08:46;;;;;;;1.77;0.80;;;16.10;99.90;;;;;;4916630;29;20320;-76
2024/03/18 16:11:13;;;;;;;1.30;0.70;;;16.20;99.90;;;;;;4915697;29;20296;-75
2024/03/18 16:13:40;;;;;;;1.10;0.80;;;16.30;99.90;;;;;;4915994;29;20226;-76
2024/03/18 16:16:10;;;;;;;1.13;0.80;;;16.30;99.90;;;;;;4916206;29;20214;-77
2024/03/18 16:18:37;;;;;;;0.97;0.50;;;16.30;99.90;;;;;;4916278;29;20256;-73
2024/03/18 16:21:05;;;;;;;2.33;0.77;;;16.40;99.90;;;;;;4916923;29;20282;-72
2024/03/18 16:23:33;;;;;;;0.87;0.40;;;16.30;99.90;;;;;;4921236;29;20264;-74
2024/03/18 16:26:00;;;;;;;1.90;0.30;;;16.20;99.90;;;;;;4933439;29;20712;-76
2024/03/18 16:28:30;;;;;;;0.87;0.43;;;16.20;99.90;;;;;;4915788;29;20265;-73
2024/03/18 16:30:57;;;;;;;2.40;0.30;;;16.00;99.90;;;;;;4916262;29;20219;-73
2024/03/18 16:33:24;;;;;;;1.50;0.33;;;15.90;99.90;;;;;;4921008;29;20260;-74
2024/03/18 16:35:51;;;;;;;2.40;0.57;;;16.00;99.90;;;;;;4934781;29;20299;-75
2024/03/18 16:38:18;;;;;;;1.83;0.37;;;16.20;99.90;;;;;;4926119;29;20650;-73
2024/03/18 16:40:46;;;;;;;1.83;0.30;;;16.20;99.90;;;;;;4916295;29;20241;-76
2024/03/18 16:43:13;;;;;;;1.13;0.40;;;16.10;99.90;;;;;;4915765;29;20274;-74
2024/03/18 16:45:42;;;;;;;0.90;0.37;;;16.00;99.90;;;;;;4916280;29;20301;-73
2024/03/18 16:48:09;;;;;;;1.10;0.60;;;15.90;99.90;;;;;;4915129;29;20241;-74
2024/03/18 16:50:36;;;;;;;0.50;0.30;;;15.80;99.90;;;;;;4915748;29;20213;-73
2024/03/18 16:53:03;;;;;;;0.40;0.30;;;15.80;99.90;;;;;;4915454;29;20568;-77
2024/03/18 16:55:30;;;;;;;0.70;0.37;;;15.60;99.90;;;;;;4917290;29;20651;-76
2024/03/18 16:57:58;;;;;;;0.30;0.20;;;15.50;99.90;;;;;;4917012;29;20243;-76
2024/03/18 17:00:28;;;;;;;0.40;0.30;;;15.50;99.90;;;;;;4916995;29;20671;-77
2024/03/18 17:02:58;;;;;;;1.70;0.40;;;15.40;99.90;;;;;;4917113;29;20556;-76
2024/03/18 17:05:25;;;;;;;0.53;0.50;;;15.20;99.90;;;;;;4917083;29;20679;-75
2024/03/18 17:07:52;;;;;;;1.20;0.43;;;15.10;99.90;;;;;;4916952;29;20241;-73
2024/03/18 17:10:19;;;;;;;2.93;0.40;;;15.10;99.90;;;;;;4917118;29;20636;-73
2024/03/18 17:12:46;;;;;;;3.13;0.50;;;15.00;99.90;;;;;;4916589;29;20355;-74
2024/03/18 17:15:15;;;;;;;0.43;0.20;;;15.00;99.90;;;;;;4917143;29;20241;-73
2024/03/18 17:17:41;;;;;;;1.77;0.40;;;15.00;99.90;;;;;;4916740;29;20650;-73
2024/03/18 17:20:10;;;;;;;1.90;0.27;;;14.90;99.90;;;;;;4917043;29;20241;-73
2024/03/18 17:22:37;;;;;;;2.30;0.60;;;14.80;99.90;;;;;;4917022;29;20750;-73
2024/03/18 17:25:05;;;;;;;1.17;0.40;;;14.70;99.90;;;;;;4934385;29;20215;-73
2024/03/18 17:27:33;;;;;;;0.50;0.30;;;14.80;99.90;;;;;;4935970;29;20232;-73
2024/03/18 17:30:00;;;;;;;2.77;0.60;;;14.70;99.90;;;;;;4919001;29;20209;-75
2024/03/18 17:32:28;;;;;;;1.77;0.50;;;14.80;99.90;;;;;;4916625;29;20265;-75
2024/03/18 17:34:56;;;;;;;2.83;0.40;;;14.70;99.90;;;;;;4916745;29;20205;-74
2024/03/18 17:37:23;;;;;;;0.90;0.30;;;14.60;99.90;;;;;;4917110;29;20262;-75
2024/03/18 17:39:51;;;;;;;2.17;0.40;;;14.50;99.90;;;;;;4916588;29;20240;-74
2024/03/18 17:42:18;;;;;;;0.67;0.40;;;14.50;99.90;;;;;;4915975;29;20229;-74
2024/03/18 17:44:45;;;;;;;4.67;0.50;;;14.40;99.90;;;;;;4916284;29;20336;-74
2024/03/18 17:47:12;;;;;;;0.67;0.43;;;14.30;99.90;;;;;;4916009;29;20634;-74
2024/03/18 17:49:40;;;;;;;2.63;0.50;;;14.20;99.90;;;;;;4916152;29;20248;-75
2024/03/18 17:52:08;;;;;;;0.80;0.30;;;14.20;99.90;;;;;;4916432;29;20226;-74
2024/03/18 17:54:35;;;;;;;3.47;0.80;;;14.20;99.90;;;;;;4916419;29;20300;-74
2024/03/18 17:57:02;;;;;;;2.43;0.70;;;14.10;99.90;;;;;;4916647;29;20252;-74
2024/03/18 17:59:29;;;;;;;2.97;0.63;;;14.10;99.90;;;;;;4916311;29;20293;-75
2024/03/18 18:01:56;;;;;;;1.80;0.70;;;14.10;99.90;;;;;;4916411;29;20316;-75
2024/03/18 18:04:24;;;;;;;0.60;0.40;;;14.10;99.90;;;;;;4915777;29;20555;-74
2024/03/18 18:06:52;;;;;;;0.70;0.40;;;14.00;99.90;;;;;;4915816;29;20213;-74
2024/03/18 18:09:20;;;;;;;2.07;0.60;;;14.00;99.90;;;;;;4915830;29;20300;-74
2024/03/18 18:11:47;;;;;;;2.63;0.73;;;13.90;99.90;;;;;;4916163;29;20217;-74
2024/03/18 18:14:14;;;;;;;3.03;0.60;;;13.90;99.90;;;;;;4915628;29;20667;-74
2024/03/18 18:16:41;;;;;;;1.07;0.40;;;13.90;99.90;;;;;;4916036;29;20229;-74
2024/03/18 18:19:08;;;;;;;1.07;0.40;;;13.80;99.90;;;;;;4915835;29;20213;-74
2024/03/18 18:21:35;;;;;;;1.00;0.50;;;13.70;99.90;;;;;;4916208;29;20694;-74
2024/03/18 18:24:03;;;;;;;1.23;0.90;;;13.60;99.90;;;;;;4915917;29;20301;-73
2024/03/18 18:26:30;;;;;;;0.60;0.50;;;13.60;99.90;;;;;;4905863;29;20248;-73
2024/03/18 18:28:58;;;;;;;3.33;0.80;;;13.60;99.90;;;;;;4901129;29;20280;-72
2024/03/18 18:31:25;;;;;;;3.70;0.80;;;13.50;99.90;;;;;;4919871;29;20213;-73
2024/03/18 18:33:53;;;;;;;2.20;1.00;;;13.50;99.90;;;;;;4919355;29;20248;-74
2024/03/18 18:36:19;;;;;;;2.20;0.60;;;13.50;99.90;;;;;;4922675;29;20214;-74
2024/03/18 18:38:47;;;;;;;1.37;0.70;;;13.40;99.90;;;;;;4919780;29;20237;-73
2024/03/18 18:41:17;;;;;;;3.00;0.50;;;13.30;99.90;;;;;;4918868;29;20209;-74
2024/03/18 18:43:43;;;;;;;3.27;0.80;;;13.30;99.90;;;;;;4918383;29;20229;-73
2024/03/18 18:46:10;;;;;;;1.83;0.60;;;13.20;99.90;;;;;;4919118;29;20305;-73
2024/03/18 18:48:37;;;;;;;2.47;0.70;;;13.10;99.90;;;;;;4919062;29;20248;-73
2024/03/18 18:51:06;;;;;;;4.50;0.70;;;13.00;99.90;;;;;;4919302;29;20245;-73
2024/03/18 18:53:36;;;;;;;1.13;0.60;;;12.90;99.90;;;;;;4918914;29;20666;-73
2024/03/18 18:56:04;;;;;;;2.33;0.73;;;12.80;99.90;;;;;;4913839;29;20262;-73
2024/03/18 18:58:33;;;;;;;3.13;1.00;;;12.80;99.90;;;;;;4919191;29;20241;-73
2024/03/18 19:00:59;;;;;;;1.33;0.60;;;12.70;99.90;;;;;;4918990;29;20213;-73
2024/03/18 19:03:26;;;;;;;1.87;0.60;;;12.70;99.90;;;;;;4918507;29;20745;-73
2024/03/18 19:05:53;;;;;;;2.40;0.90;;;12.60;99.90;;;;;;4918146;29;20312;-73
2024/03/18 19:08:21;;;;;;;2.60;0.77;;;12.50;99.90;;;;;;4918725;29;20291;-74
2024/03/18 19:10:48;;;;;;;1.70;0.60;;;12.40;99.90;;;;;;4918540;29;20241;-73
2024/03/18 19:13:15;;;;;;;3.67;0.87;;;12.30;99.90;;;;;;4918693;29;20341;-73
2024/03/18 19:15:44;;;;;;;2.70;0.80;;;12.20;99.90;;;;;;4918596;29;20253;-73
2024/03/18 19:18:12;;;;;;;2.93;1.27;;;12.10;99.90;;;;;;4918872;29;20641;-74
2024/03/18 19:20:39;;;;;;;3.57;1.33;;;12.00;99.90;;;;;;4918875;29;20754;-73
2024/03/18 19:23:06;;;;;;;4.07;1.30;;;11.90;99.90;;;;;;4918350;29;20236;-73
2024/03/18 19:25:33;;;;;;;2.60;1.20;;;11.90;99.90;;;;;;4918584;29;20241;-74
2024/03/18 19:28:00;;;;;;;1.83;0.90;;;11.80;99.90;;;;;;4912358;29;20678;-73
2024/03/18 19:30:27;;;;;;;2.53;1.00;;;11.70;99.90;;;;;;4913142;29;20233;-73
2024/03/18 19:32:55;;;;;;;6.87;1.10;;;11.70;99.90;;;;;;4917742;29;20261;-73
2024/03/18 19:35:22;;;;;;;3.40;0.90;;;11.60;99.90;;;;;;4917974;29;20241;-74
2024/03/18 19:37:50;;;;;;;1.00;0.70;;;11.60;99.90;;;;;;4918600;29;20209;-74
2024/03/18 19:40:18;;;;;;;2.47;0.93;;;11.60;99.90;;;;;;4918441;29;20214;-74
2024/03/18 19:42:46;;;;;;;4.83;1.10;;;11.60;99.90;;;;;;4918055;29;20234;-74
2024/03/18 19:45:13;;;;;;;1.87;0.90;;;11.50;99.90;;;;;;4918542;29;20615;-74
2024/03/18 19:47:40;;;;;;;1.57;0.90;;;11.50;99.90;;;;;;4918479;29;20214;-73
2024/03/18 19:50:10;;;;;;;5.00;1.30;;;11.50;99.90;;;;;;4918399;29;20280;-73
2024/03/18 19:52:37;;;;;;;5.23;1.20;;;11.40;99.90;;;;;;4918101;29;20707;-73
2024/03/18 19:55:06;;;;;;;5.87;1.83;;;11.40;99.90;;;;;;4917909;29;20213;-74
2024/03/18 19:57:33;;;;;;;2.03;1.17;;;11.30;99.90;;;;;;4912138;29;20220;-73
2024/03/18 20:00:00;;;;;;;3.17;1.40;;;11.30;99.90;;;;;;4915664;29;20202;-73
2024/03/18 20:02:29;;;;;;;7.43;2.00;;;11.20;99.90;;;;;;4911923;29;20241;-73
2024/03/18 20:04:57;;;;;;;6.23;1.43;;;11.20;99.90;;;;;;4918085;29;20730;-73
2024/03/18 20:07:26;;;;;;;2.73;1.40;;;11.10;99.90;;;;;;4918185;29;20245;-74
2024/03/18 20:09:53;;;;;;;2.83;1.57;;;11.10;99.90;;;;;;4918416;29;20237;-73
2024/03/18 20:12:20;;;;;;;3.63;1.30;;;11.00;99.90;;;;;;4918025;29;20774;-73
2024/03/18 20:14:47;;;;;;;2.33;1.20;;;10.90;99.90;;;;;;4918294;29;20201;-74
2024/03/18 20:17:14;;;;;;;5.80;1.13;;;10.80;99.90;;;;;;4917837;29;20281;-73
2024/03/18 20:19:41;;;;;;;3.20;1.43;;;10.80;99.90;;;;;;4918237;29;20239;-73
2024/03/18 20:22:08;;;;;;;2.20;1.30;;;10.70;99.90;;;;;;4918156;29;20261;-74
2024/03/18 20:24:37;;;;;;;4.17;1.73;;;10.60;99.90;;;;;;4918056;29;20237;-72
2024/03/18 20:27:05;;;;;;;5.53;1.60;;;10.60;99.90;;;;;;4917641;29;20698;-73
2024/03/18 20:29:32;;;;;;;3.97;1.93;;;10.60;99.90;;;;;;4917658;29;20237;-73
2024/03/18 20:31:59;;;;;;;7.33;1.57;;;10.50;99.90;;;;;;4917711;29;20324;-73
2024/03/18 20:34:26;;;;;;;5.67;1.50;;;10.50;99.90;;;;;;4909867;29;20718;-73
2024/03/18 20:36:53;;;;;;;4.53;1.47;;;10.40;99.90;;;;;;4917313;29;20288;-73
2024/03/18 20:39:21;;;;;;;4.13;1.73;;;10.30;99.90;;;;;;4917905;29;20209;-74
2024/03/18 20:41:50;;;;;;;4.30;1.80;;;10.30;99.90;;;;;;4917269;29;20784;-74
2024/03/18 20:44:17;;;;;;;4.23;1.50;;;10.30;99.90;;;;;;4917843;29;20209;-74
2024/03/18 20:46:43;;;;;;;3.83;1.70;;;10.20;99.90;;;;;;4916267;29;20237;-74
2024/03/18 20:49:10;;;;;;;4.03;1.40;;;10.20;99.90;;;;;;4917571;29;20273;-74
2024/03/18 20:51:38;;;;;;;4.77;1.83;;;10.10;99.90;;;;;;4916767;29;20245;-74
2024/03/18 20:54:06;;;;;;;5.77;1.23;;;10.10;99.90;;;;;;4917501;29;20213;-74
2024/03/18 20:56:34;;;;;;;2.23;1.10;;;10.10;99.90;;;;;;4916667;29;20664;-73
2024/03/18 20:59:02;;;;;;;4.80;1.40;;;10.00;99.90;;;;;;4917586;29;20213;-73
2024/03/18 21:01:29;;;;;;;2.37;1.30;;;10.00;99.90;;;;;;4916827;29;20706;-73
2024/03/18 21:03:56;;;;;;;3.27;0.97;;;10.00;99.90;;;;;;4916997;29;20265;-73
2024/03/18 21:06:23;;;;;;;1.87;1.00;;;9.90;99.90;;;;;;4916952;29;20245;-73
2024/03/18 21:08:50;;;;;;;4.43;1.20;;;9.90;99.90;;;;;;4911259;29;20269;-74
2024/03/18 21:11:17;;;;;;;5.13;1.13;;;9.80;99.90;;;;;;4916534;29;20620;-74
2024/03/18 21:13:44;;;;;;;0.90;0.80;;;9.70;99.90;;;;;;4916251;29;20265;-74
2024/03/18 21:16:12;;;;;;;4.63;1.83;;;9.70;99.90;;;;;;4912879;29;20248;-73
2024/03/18 21:18:39;;;;;;;3.93;1.23;;;9.70;99.90;;;;;;4911999;29;20300;-73
2024/03/18 21:21:06;;;;;;;5.23;2.03;;;9.70;99.90;;;;;;4916699;29;20241;-73
2024/03/18 21:23:33;;;;;;;2.07;1.30;;;9.70;99.90;;;;;;4916929;29;20225;-73